sensor_id;sensor_type;location;lat;lon;timestamp;pressure;altitude;pressure_sealevel;temperature;humidity
66668;BME280;57205;51.438;-2.006;2023-04-23T00:02:01;99324.19;;;9.83;100.00
66668;BME280;57205;51.438;-2.006;2023-04-23T00:04:27;99324.69;;;9.85;100.00
66668;BME280;57205;51.438;-2.006;2023-04-23T00:06:54;99323.63;;;9.86;100.00
66668;BME280;57205;51.438;-2.006;2023-04-23T00:09:21;99320.44;;;9.84;100.00
66668;BME280;57205;51.438;-2.006;2023-04-23T00:11:47;99325.19;;;9.87;100.00
66668;BME280;57205;51.438;-2.006;2023-04-23T00:14:13;99326.59;;;9.84;100.00
66668;BME280;57205;51.438;-2.006;2023-04-23T00:16:38;99321.25;;;9.84;100.00
66668;BME280;57205;51.438;-2.006;2023-04-23T00:19:05;99318.78;;;9.88;100.00
66668;BME280;57205;51.438;-2.006;2023-04-23T00:21:30;99316.88;;;9.88;100.00
66668;BME280;57205;51.438;-2.006;2023-04-23T00:23:56;99316.13;;;9.88;100.00
66668;BME280;57205;51.438;-2.006;2023-04-23T00:26:21;99319.84;;;9.87;100.00
66668;BME280;57205;51.438;-2.006;2023-04-23T00:28:47;99316.13;;;9.88;100.00
66668;BME280;57205;51.438;-2.006;2023-04-23T00:31:12;99316.13;;;9.88;100.00
66668;BME280;57205;51.438;-2.006;2023-04-23T00:33:38;99313.16;;;9.90;100.00
66668;BME280;57205;51.438;-2.006;2023-04-23T00:36:03;99315.81;;;9.90;100.00
66668;BME280;57205;51.438;-2.006;2023-04-23T00:38:29;99317.97;;;9.88;100.00
66668;BME280;57205;51.438;-2.006;2023-04-23T00:40:55;99313.16;;;9.90;100.00
66668;BME280;57205;51.438;-2.006;2023-04-23T00:43:20;99313.94;;;9.90;100.00
66668;BME280;57205;51.438;-2.006;2023-04-23T00:45:47;99312.84;;;9.91;100.00
66668;BME280;57205;51.438;-2.006;2023-04-23T00:48:13;99313.94;;;9.90;100.00
66668;BME280;57205;51.438;-2.006;2023-04-23T00:50:39;99320.38;;;9.89;100.00
66668;BME280;57205;51.438;-2.006;2023-04-23T00:53:05;99311.53;;;9.88;100.00
66668;BME280;57205;51.438;-2.006;2023-04-23T00:55:31;99314.94;;;9.94;100.00
66668;BME280;57205;51.438;-2.006;2023-04-23T00:57:57;99318.69;;;9.93;100.00
66668;BME280;57205;51.438;-2.006;2023-04-23T01:00:22;99315.53;;;9.91;100.00
66668;BME280;57205;51.438;-2.006;2023-04-23T01:02:48;99318.50;;;9.90;100.00
66668;BME280;57205;51.438;-2.006;2023-04-23T01:05:16;99307.81;;;9.90;100.00
66668;BME280;57205;51.438;-2.006;2023-04-23T01:07:43;99310.97;;;9.92;100.00
66668;BME280;57205;51.438;-2.006;2023-04-23T01:10:10;99305.03;;;9.95;100.00
66668;BME280;57205;51.438;-2.006;2023-04-23T01:12:36;99305.03;;;9.95;100.00
66668;BME280;57205;51.438;-2.006;2023-04-23T01:15:02;99303.47;;;9.94;100.00
66668;BME280;57205;51.438;-2.006;2023-04-23T01:17:28;99305.84;;;9.95;100.00
66668;BME280;57205;51.438;-2.006;2023-04-23T01:19:54;99298.91;;;9.94;100.00
66668;BME280;57205;51.438;-2.006;2023-04-23T01:22:19;99299.91;;;9.98;100.00
66668;BME280;57205;51.438;-2.006;2023-04-23T01:24:46;99295.16;;;9.95;100.00
66668;BME280;57205;51.438;-2.006;2023-04-23T01:27:11;99299.13;;;9.98;100.00
66668;BME280;57205;51.438;-2.006;2023-04-23T01:29:38;99300.72;;;9.99;100.00
66668;BME280;57205;51.438;-2.006;2023-04-23T01:32:04;99302.06;;;9.96;100.00
66668;BME280;57205;51.438;-2.006;2023-04-23T01:34:30;99300.50;;;9.95;100.00
66668;BME280;57205;51.438;-2.006;2023-04-23T01:36:57;99300.19;;;9.97;100.00
66668;BME280;57205;51.438;-2.006;2023-04-23T01:39:23;99302.66;;;9.93;100.00
66668;BME280;57205;51.438;-2.006;2023-04-23T01:41:49;99304.25;;;9.94;100.00
66668;BME280;57205;51.438;-2.006;2023-04-23T01:44:14;99304.25;;;9.94;100.00
66668;BME280;57205;51.438;-2.006;2023-04-23T01:46:41;99311.19;;;9.95;100.00
66668;BME280;57205;51.438;-2.006;2023-04-23T01:49:07;99306.16;;;9.94;100.00
66668;BME280;57205;51.438;-2.006;2023-04-23T01:51:34;99305.94;;;9.90;100.00
66668;BME280;57205;51.438;-2.006;2023-04-23T01:54:00;99306.44;;;9.92;100.00
66668;BME280;57205;51.438;-2.006;2023-04-23T01:56:27;99306.69;;;9.91;100.00
66668;BME280;57205;51.438;-2.006;2023-04-23T01:58:53;99311.78;;;9.92;100.00
66668;BME280;57205;51.438;-2.006;2023-04-23T02:01:18;99314.50;;;9.87;100.00
66668;BME280;57205;51.438;-2.006;2023-04-23T02:03:45;99311.34;;;9.85;100.00
66668;BME280;57205;51.438;-2.006;2023-04-23T02:06:11;99316.69;;;9.85;100.00
66668;BME280;57205;51.438;-2.006;2023-04-23T02:08:37;99308.97;;;9.83;100.00
66668;BME280;57205;51.438;-2.006;2023-04-23T02:11:04;99308.44;;;9.81;100.00
66668;BME280;57205;51.438;-2.006;2023-04-23T02:13:30;99311.94;;;9.82;100.00
66668;BME280;57205;51.438;-2.006;2023-04-23T02:15:56;99315.41;;;9.82;100.00
66668;BME280;57205;51.438;-2.006;2023-04-23T02:18:21;99317.28;;;9.82;100.00
66668;BME280;57205;51.438;-2.006;2023-04-23T02:20:47;99313.78;;;9.81;100.00
66668;BME280;57205;51.438;-2.006;2023-04-23T02:23:12;99323.97;;;9.79;100.00
66668;BME280;57205;51.438;-2.006;2023-04-23T02:25:38;99326.66;;;9.79;100.00
66668;BME280;57205;51.438;-2.006;2023-04-23T02:28:05;99323.41;;;9.82;100.00
66668;BME280;57205;51.438;-2.006;2023-04-23T02:30:32;99330.72;;;9.77;100.00
66668;BME280;57205;51.438;-2.006;2023-04-23T02:32:58;99331.28;;;9.74;100.00
66668;BME280;57205;51.438;-2.006;2023-04-23T02:35:23;99340.16;;;9.69;100.00
66668;BME280;57205;51.438;-2.006;2023-04-23T02:37:49;99344.72;;;9.69;100.00
66668;BME280;57205;51.438;-2.006;2023-04-23T02:40:15;99348.03;;;9.61;100.00
66668;BME280;57205;51.438;-2.006;2023-04-23T02:42:40;99353.88;;;9.63;100.00
66668;BME280;57205;51.438;-2.006;2023-04-23T02:45:06;99353.94;;;9.58;100.00
66668;BME280;57205;51.438;-2.006;2023-04-23T02:47:32;99356.47;;;9.49;100.00
66668;BME280;57205;51.438;-2.006;2023-04-23T02:49:57;99349.03;;;9.46;100.00
66668;BME280;57205;51.438;-2.006;2023-04-23T02:52:23;99350.69;;;9.42;100.00
66668;BME280;57205;51.438;-2.006;2023-04-23T02:54:49;99349.94;;;9.37;100.00
66668;BME280;57205;51.438;-2.006;2023-04-23T02:57:15;99351.59;;;9.33;100.00
66668;BME280;57205;51.438;-2.006;2023-04-23T02:59:41;99346.25;;;9.33;100.00
66668;BME280;57205;51.438;-2.006;2023-04-23T03:02:06;99351.38;;;9.29;100.00
66668;BME280;57205;51.438;-2.006;2023-04-23T03:04:32;99361.31;;;9.24;100.00
66668;BME280;57205;51.438;-2.006;2023-04-23T03:06:57;99357.06;;;9.23;100.00
66668;BME280;57205;51.438;-2.006;2023-04-23T03:09:23;99360.31;;;9.20;100.00
66668;BME280;57205;51.438;-2.006;2023-04-23T03:11:48;99359.81;;;9.18;100.00
66668;BME280;57205;51.438;-2.006;2023-04-23T03:14:14;99363.03;;;9.15;100.00
66668;BME280;57205;51.438;-2.006;2023-04-23T03:16:39;99368.97;;;9.12;100.00
66668;BME280;57205;51.438;-2.006;2023-04-23T03:19:04;99372.19;;;9.09;100.00
66668;BME280;57205;51.438;-2.006;2023-04-23T03:21:30;99372.69;;;9.11;100.00
66668;BME280;57205;51.438;-2.006;2023-04-23T03:23:55;99372.69;;;9.11;100.00
66668;BME280;57205;51.438;-2.006;2023-04-23T03:26:21;99370.59;;;9.08;100.00
66668;BME280;57205;51.438;-2.006;2023-04-23T03:28:46;99370.09;;;9.06;100.00
66668;BME280;57205;51.438;-2.006;2023-04-23T03:31:12;99368.00;;;9.03;100.00
66668;BME280;57205;51.438;-2.006;2023-04-23T03:33:37;99364.81;;;9.01;100.00
66668;BME280;57205;51.438;-2.006;2023-04-23T03:36:03;99364.00;;;9.00;100.00
66668;BME280;57205;51.438;-2.006;2023-04-23T03:38:28;99364.81;;;9.01;100.00
66668;BME280;57205;51.438;-2.006;2023-04-23T03:40:54;99366.16;;;8.98;100.00
66668;BME280;57205;51.438;-2.006;2023-04-23T03:43:19;99369.63;;;8.99;100.00
66668;BME280;57205;51.438;-2.006;2023-04-23T03:45:44;99374.97;;;8.99;100.00
66668;BME280;57205;51.438;-2.006;2023-04-23T03:48:10;99382.97;;;8.99;100.00
66668;BME280;57205;51.438;-2.006;2023-04-23T03:50:35;99388.53;;;9.02;100.00
66668;BME280;57205;51.438;-2.006;2023-04-23T03:53:04;99384.31;;;8.96;100.00
66668;BME280;57205;51.438;-2.006;2023-04-23T03:55:30;99389.16;;;8.94;100.00
66668;BME280;57205;51.438;-2.006;2023-04-23T03:57:55;99389.66;;;8.96;100.00
66668;BME280;57205;51.438;-2.006;2023-04-23T04:00:21;99389.88;;;9.00;100.00
66668;BME280;57205;51.438;-2.006;2023-04-23T04:02:46;99386.19;;;8.96;100.00
66668;BME280;57205;51.438;-2.006;2023-04-23T04:05:12;99388.38;;;8.94;100.00
66668;BME280;57205;51.438;-2.006;2023-04-23T04:07:38;99381.72;;;8.91;100.00
66668;BME280;57205;51.438;-2.006;2023-04-23T04:10:05;99380.91;;;8.91;100.00
66668;BME280;57205;51.438;-2.006;2023-04-23T04:12:30;99379.91;;;8.86;100.00
66668;BME280;57205;51.438;-2.006;2023-04-23T04:14:56;99370.03;;;8.87;100.00
66668;BME280;57205;51.438;-2.006;2023-04-23T04:17:21;99379.66;;;8.83;100.00
66668;BME280;57205;51.438;-2.006;2023-04-23T04:19:46;99380.00;;;8.76;100.00
66668;BME280;57205;51.438;-2.006;2023-04-23T04:22:13;99379.78;;;8.73;100.00
66668;BME280;57205;51.438;-2.006;2023-04-23T04:24:38;99377.94;;;8.68;100.00
66668;BME280;57205;51.438;-2.006;2023-04-23T04:27:06;99376.63;;;8.66;100.00
66668;BME280;57205;51.438;-2.006;2023-04-23T04:29:32;99376.91;;;8.64;100.00
66668;BME280;57205;51.438;-2.006;2023-04-23T04:31:57;99366.25;;;8.64;100.00
66668;BME280;57205;51.438;-2.006;2023-04-23T04:34:23;99370.00;;;8.63;100.00
66668;BME280;57205;51.438;-2.006;2023-04-23T04:36:49;99372.16;;;8.61;100.00
66668;BME280;57205;51.438;-2.006;2023-04-23T04:39:18;99379.34;;;8.61;100.00
66668;BME280;57205;51.438;-2.006;2023-04-23T04:41:44;99376.41;;;8.62;100.00
66668;BME280;57205;51.438;-2.006;2023-04-23T04:44:09;99370.56;;;8.60;100.00
66668;BME280;57205;51.438;-2.006;2023-04-23T04:46:35;99369.50;;;8.61;100.00
66668;BME280;57205;51.438;-2.006;2023-04-23T04:49:11;99364.69;;;8.63;100.00
66668;BME280;57205;51.438;-2.006;2023-04-23T04:51:37;99365.22;;;8.60;100.00
66668;BME280;57205;51.438;-2.006;2023-04-23T04:54:03;99373.78;;;8.57;100.00
66668;BME280;57205;51.438;-2.006;2023-04-23T04:56:29;99368.75;;;8.56;100.00
66668;BME280;57205;51.438;-2.006;2023-04-23T04:58:54;99370.09;;;8.53;100.00
66668;BME280;57205;51.438;-2.006;2023-04-23T05:01:20;99375.72;;;8.52;100.00
66668;BME280;57205;51.438;-2.006;2023-04-23T05:03:48;99374.38;;;8.49;100.00
66668;BME280;57205;51.438;-2.006;2023-04-23T05:06:14;99378.94;;;8.49;100.00
66668;BME280;57205;51.438;-2.006;2023-04-23T05:08:39;99373.63;;;8.49;100.00
66668;BME280;57205;51.438;-2.006;2023-04-23T05:11:06;99374.38;;;8.49;100.00
66668;BME280;57205;51.438;-2.006;2023-04-23T05:13:32;99373.63;;;8.49;100.00
66668;BME280;57205;51.438;-2.006;2023-04-23T05:15:57;99371.22;;;8.47;100.00
66668;BME280;57205;51.438;-2.006;2023-04-23T05:18:23;99369.63;;;8.46;100.00
66668;BME280;57205;51.438;-2.006;2023-04-23T05:20:48;99372.28;;;8.46;100.00
66668;BME280;57205;51.438;-2.006;2023-04-23T05:23:14;99379.19;;;8.47;100.00
66668;BME280;57205;51.438;-2.006;2023-04-23T05:25:39;99385.06;;;8.49;100.00
66668;BME280;57205;51.438;-2.006;2023-04-23T05:28:05;99379.72;;;8.49;100.00
66668;BME280;57205;51.438;-2.006;2023-04-23T05:30:32;99393.56;;;8.51;100.00
66668;BME280;57205;51.438;-2.006;2023-04-23T05:32:58;99383.72;;;8.52;100.00
66668;BME280;57205;51.438;-2.006;2023-04-23T05:35:23;99385.56;;;8.51;100.00
66668;BME280;57205;51.438;-2.006;2023-04-23T05:37:49;99386.09;;;8.53;100.00
66668;BME280;57205;51.438;-2.006;2023-04-23T05:40:14;99381.28;;;8.55;100.00
66668;BME280;57205;51.438;-2.006;2023-04-23T05:42:39;99376.75;;;8.56;100.00
66668;BME280;57205;51.438;-2.006;2023-04-23T05:45:05;99379.94;;;8.58;100.00
66668;BME280;57205;51.438;-2.006;2023-04-23T05:47:31;99380.16;;;8.61;100.00
66668;BME280;57205;51.438;-2.006;2023-04-23T05:49:56;99384.91;;;8.64;100.00
66668;BME280;57205;51.438;-2.006;2023-04-23T05:52:22;99381.44;;;8.64;100.00
66668;BME280;57205;51.438;-2.006;2023-04-23T05:54:49;99382.75;;;8.66;100.00
66668;BME280;57205;51.438;-2.006;2023-04-23T05:57:15;99397.19;;;8.65;100.00
66668;BME280;57205;51.438;-2.006;2023-04-23T05:59:40;99389.72;;;8.62;100.00
66668;BME280;57205;51.438;-2.006;2023-04-23T06:02:07;99394.53;;;8.65;100.00
66668;BME280;57205;51.438;-2.006;2023-04-23T06:04:33;99391.84;;;8.65;100.00
66668;BME280;57205;51.438;-2.006;2023-04-23T06:06:58;99393.44;;;8.66;100.00
66668;BME280;57205;51.438;-2.006;2023-04-23T06:09:24;99391.28;;;8.68;100.00
66668;BME280;57205;51.438;-2.006;2023-04-23T06:11:53;99386.47;;;8.70;100.00
66668;BME280;57205;51.438;-2.006;2023-04-23T06:14:19;99392.59;;;8.71;100.00
66668;BME280;57205;51.438;-2.006;2023-04-23T06:16:45;99395.78;;;8.73;100.00
66668;BME280;57205;51.438;-2.006;2023-04-23T06:19:10;99401.91;;;8.73;100.00
66668;BME280;57205;51.438;-2.006;2023-04-23T06:21:36;99398.69;;;8.76;100.00
66668;BME280;57205;51.438;-2.006;2023-04-23T06:24:01;99389.31;;;8.79;100.00
66668;BME280;57205;51.438;-2.006;2023-04-23T06:26:27;99391.94;;;8.84;100.00
66668;BME280;57205;51.438;-2.006;2023-04-23T06:28:52;99392.41;;;8.91;100.00
66668;BME280;57205;51.438;-2.006;2023-04-23T06:31:18;99391.78;;;8.99;100.00
66668;BME280;57205;51.438;-2.006;2023-04-23T06:33:43;99392.16;;;9.11;100.00
66668;BME280;57205;51.438;-2.006;2023-04-23T06:36:09;99394.44;;;9.23;100.00
66668;BME280;57205;51.438;-2.006;2023-04-23T06:38:35;99399.66;;;9.33;100.00
66668;BME280;57205;51.438;-2.006;2023-04-23T06:41:02;99388.19;;;9.32;100.00
66668;BME280;57205;51.438;-2.006;2023-04-23T06:43:28;99391.09;;;9.36;100.00
66668;BME280;57205;51.438;-2.006;2023-04-23T06:45:54;99391.88;;;9.36;100.00
66668;BME280;57205;51.438;-2.006;2023-04-23T06:48:20;99377.66;;;9.41;100.00
66668;BME280;57205;51.438;-2.006;2023-04-23T06:50:47;99383.72;;;9.46;100.00
66668;BME280;57205;51.438;-2.006;2023-04-23T06:53:13;99380.16;;;9.56;100.00
66668;BME280;57205;51.438;-2.006;2023-04-23T06:55:38;99378.91;;;9.67;100.00
66668;BME280;57205;51.438;-2.006;2023-04-23T06:58:03;99378.84;;;9.72;100.00
66668;BME280;57205;51.438;-2.006;2023-04-23T07:00:31;99369.59;;;9.83;100.00
66668;BME280;57205;51.438;-2.006;2023-04-23T07:02:57;99375.09;;;9.92;100.00
66668;BME280;57205;51.438;-2.006;2023-04-23T07:05:22;99373.56;;;10.04;100.00
66668;BME280;57205;51.438;-2.006;2023-04-23T07:07:48;99365.72;;;10.13;100.00
66668;BME280;57205;51.438;-2.006;2023-04-23T07:10:13;99365.22;;;10.43;100.00
66668;BME280;57205;51.438;-2.006;2023-04-23T07:12:39;99364.69;;;10.73;100.00
66668;BME280;57205;51.438;-2.006;2023-04-23T07:15:06;99363.94;;;11.00;100.00
66668;BME280;57205;51.438;-2.006;2023-04-23T07:17:32;99365.13;;;11.07;100.00
66668;BME280;57205;51.438;-2.006;2023-04-23T07:19:57;99366.59;;;11.13;100.00
66668;BME280;57205;51.438;-2.006;2023-04-23T07:22:24;99374.13;;;11.38;100.00
66668;BME280;57205;51.438;-2.006;2023-04-23T07:24:50;99363.06;;;11.67;100.00
66668;BME280;57205;51.438;-2.006;2023-04-23T07:27:15;99360.03;;;12.18;100.00
66668;BME280;57205;51.438;-2.006;2023-04-23T07:29:41;99352.91;;;12.97;100.00
66668;BME280;57205;51.438;-2.006;2023-04-23T07:32:06;99345.81;;;14.00;100.00
66668;BME280;57205;51.438;-2.006;2023-04-23T07:34:32;99337.25;;;14.95;100.00
66668;BME280;57205;51.438;-2.006;2023-04-23T07:36:57;99343.13;;;15.76;100.00
66668;BME280;57205;51.438;-2.006;2023-04-23T07:39:23;99338.97;;;16.20;100.00
66668;BME280;57205;51.438;-2.006;2023-04-23T07:41:48;99336.72;;;16.54;97.68
66668;BME280;57205;51.438;-2.006;2023-04-23T07:44:14;99334.03;;;16.54;94.27
66668;BME280;57205;51.438;-2.006;2023-04-23T07:46:39;99337.53;;;16.67;91.48
66668;BME280;57205;51.438;-2.006;2023-04-23T07:49:05;99332.78;;;16.52;89.58
66668;BME280;57205;51.438;-2.006;2023-04-23T07:51:31;99333.91;;;16.51;90.34
66668;BME280;57205;51.438;-2.006;2023-04-23T07:53:57;99334.69;;;16.51;90.46
66668;BME280;57205;51.438;-2.006;2023-04-23T07:56:23;99333.00;;;16.26;93.71
66668;BME280;57205;51.438;-2.006;2023-04-23T07:58:49;99335.44;;;15.87;94.93
66668;BME280;57205;51.438;-2.006;2023-04-23T08:01:15;99337.69;;;15.64;96.30
66668;BME280;57205;51.438;-2.006;2023-04-23T08:03:41;99334.06;;;15.31;97.75
66668;BME280;57205;51.438;-2.006;2023-04-23T08:06:09;99333.56;;;15.00;99.10
66668;BME280;57205;51.438;-2.006;2023-04-23T08:08:35;99337.97;;;14.66;100.00
66668;BME280;57205;51.438;-2.006;2023-04-23T08:11:00;99335.03;;;14.25;100.00
66668;BME280;57205;51.438;-2.006;2023-04-23T08:13:26;99337.75;;;14.00;100.00
66668;BME280;57205;51.438;-2.006;2023-04-23T08:15:51;99341.72;;;13.77;100.00
66668;BME280;57205;51.438;-2.006;2023-04-23T08:18:16;99336.34;;;13.68;100.00
66668;BME280;57205;51.438;-2.006;2023-04-23T08:20:42;99336.94;;;13.56;100.00
66668;BME280;57205;51.438;-2.006;2023-04-23T08:23:08;99335.53;;;13.59;100.00
66668;BME280;57205;51.438;-2.006;2023-04-23T08:25:33;99337.44;;;13.58;100.00
66668;BME280;57205;51.438;-2.006;2023-04-23T08:27:59;99335.38;;;13.64;100.00
66668;BME280;57205;51.438;-2.006;2023-04-23T08:30:24;99332.22;;;13.62;100.00
66668;BME280;57205;51.438;-2.006;2023-04-23T08:32:50;99337.59;;;13.96;100.00
66668;BME280;57205;51.438;-2.006;2023-04-23T08:35:18;99339.88;;;14.75;100.00
66668;BME280;57205;51.438;-2.006;2023-04-23T08:37:44;99343.56;;;15.57;98.54
66668;BME280;57205;51.438;-2.006;2023-04-23T08:40:10;99346.06;;;16.04;94.24
66668;BME280;57205;51.438;-2.006;2023-04-23T08:42:40;99338.56;;;16.09;88.58
66668;BME280;57205;51.438;-2.006;2023-04-23T08:45:07;99342.66;;;15.74;90.11
66668;BME280;57205;51.438;-2.006;2023-04-23T08:47:33;99342.88;;;15.40;90.64
66668;BME280;57205;51.438;-2.006;2023-04-23T08:50:01;99339.47;;;15.22;93.10
66668;BME280;57205;51.438;-2.006;2023-04-23T08:52:32;99343.13;;;14.89;93.49
66668;BME280;57205;51.438;-2.006;2023-04-23T08:55:03;99346.94;;;14.41;93.30
66668;BME280;57205;51.438;-2.006;2023-04-23T08:57:31;99346.44;;;14.22;90.24
66668;BME280;57205;51.438;-2.006;2023-04-23T08:59:58;99335.66;;;14.56;92.94
66668;BME280;57205;51.438;-2.006;2023-04-23T09:02:25;99344.38;;;15.58;88.21
66668;BME280;57205;51.438;-2.006;2023-04-23T09:04:51;99345.28;;;16.69;78.70
66668;BME280;57205;51.438;-2.006;2023-04-23T09:07:18;99340.41;;;17.07;68.42
66668;BME280;57205;51.438;-2.006;2023-04-23T09:09:44;99333.53;;;17.33;66.77
66668;BME280;57205;51.438;-2.006;2023-04-23T09:12:11;99327.75;;;17.47;62.34
66668;BME280;57205;51.438;-2.006;2023-04-23T09:14:37;99325.59;;;17.65;62.47
66668;BME280;57205;51.438;-2.006;2023-04-23T09:17:02;99327.56;;;17.52;62.46
66668;BME280;57205;51.438;-2.006;2023-04-23T09:19:28;99329.56;;;17.31;63.91
66668;BME280;57205;51.438;-2.006;2023-04-23T09:21:53;99328.00;;;17.06;65.12
66668;BME280;57205;51.438;-2.006;2023-04-23T09:24:23;99332.94;;;16.68;70.65
66668;BME280;57205;51.438;-2.006;2023-04-23T09:26:50;99331.31;;;16.22;76.60
66668;BME280;57205;51.438;-2.006;2023-04-23T09:29:18;99337.72;;;15.76;80.21
66668;BME280;57205;51.438;-2.006;2023-04-23T09:31:47;99337.84;;;15.30;83.83
66668;BME280;57205;51.438;-2.006;2023-04-23T09:34:20;99334.72;;;14.90;87.27
66668;BME280;57205;51.438;-2.006;2023-04-23T09:36:48;99340.81;;;14.79;89.82
66668;BME280;57205;51.438;-2.006;2023-04-23T09:39:20;99338.03;;;14.58;85.83
66668;BME280;57205;51.438;-2.006;2023-04-23T09:41:45;99338.50;;;14.60;79.92
66668;BME280;57205;51.438;-2.006;2023-04-23T09:44:20;99343.56;;;14.99;78.88
66668;BME280;57205;51.438;-2.006;2023-04-23T09:46:50;99333.97;;;15.69;73.20
66668;BME280;57205;51.438;-2.006;2023-04-23T09:49:16;99335.97;;;15.80;71.17
66668;BME280;57205;51.438;-2.006;2023-04-23T09:51:43;99332.56;;;16.04;70.92
66668;BME280;57205;51.438;-2.006;2023-04-23T09:54:21;99329.56;;;16.95;67.27
66668;BME280;57205;51.438;-2.006;2023-04-23T09:56:51;99327.97;;;18.06;59.93
66668;BME280;57205;51.438;-2.006;2023-04-23T09:59:29;99325.91;;;19.36;53.78
66668;BME280;57205;51.438;-2.006;2023-04-23T10:01:55;99321.69;;;19.38;52.01
66668;BME280;57205;51.438;-2.006;2023-04-23T10:04:23;99323.81;;;18.83;51.52
66668;BME280;57205;51.438;-2.006;2023-04-23T10:06:57;99323.72;;;17.93;50.09
66668;BME280;57205;51.438;-2.006;2023-04-23T10:09:23;99322.34;;;16.75;51.73
66668;BME280;57205;51.438;-2.006;2023-04-23T10:11:56;99324.66;;;16.19;54.99
66668;BME280;57205;51.438;-2.006;2023-04-23T10:14:23;99323.53;;;16.20;58.88
66668;BME280;57205;51.438;-2.006;2023-04-23T10:16:50;99330.28;;;15.52;54.91
66668;BME280;57205;51.438;-2.006;2023-04-23T10:19:20;99317.59;;;15.94;52.90
66668;BME280;57205;51.438;-2.006;2023-04-23T10:24:26;99315.63;;;15.83;55.78
66668;BME280;57205;51.438;-2.006;2023-04-23T10:26:59;99316.09;;;15.64;57.16
66668;BME280;57205;51.438;-2.006;2023-04-23T10:29:30;99317.41;;;15.58;58.70
66668;BME280;57205;51.438;-2.006;2023-04-23T10:32:00;99326.13;;;15.34;59.80
66668;BME280;57205;51.438;-2.006;2023-04-23T10:34:27;99322.94;;;15.32;58.69
66668;BME280;57205;51.438;-2.006;2023-04-23T10:36:54;99321.03;;;15.33;58.43
66668;BME280;57205;51.438;-2.006;2023-04-23T10:39:21;99320.47;;;15.19;55.11
66668;BME280;57205;51.438;-2.006;2023-04-23T10:41:48;99324.34;;;15.09;55.87
66668;BME280;57205;51.438;-2.006;2023-04-23T10:44:14;99322.41;;;15.68;55.97
66668;BME280;57205;51.438;-2.006;2023-04-23T10:46:56;99309.84;;;16.25;50.85
66668;BME280;57205;51.438;-2.006;2023-04-23T10:49:29;99309.97;;;16.86;49.25
66668;BME280;57205;51.438;-2.006;2023-04-23T10:52:12;99311.09;;;16.97;47.98
66668;BME280;57205;51.438;-2.006;2023-04-23T10:54:42;99309.31;;;16.89;48.41
66668;BME280;57205;51.438;-2.006;2023-04-23T10:57:09;99312.53;;;16.58;47.42
66668;BME280;57205;51.438;-2.006;2023-04-23T10:59:38;99315.97;;;16.46;50.83
66668;BME280;57205;51.438;-2.006;2023-04-23T11:02:11;99315.81;;;15.98;54.39
66668;BME280;57205;51.438;-2.006;2023-04-23T11:04:52;99321.81;;;15.62;56.28
66668;BME280;57205;51.438;-2.006;2023-04-23T11:07:19;99319.72;;;15.39;58.72
66668;BME280;57205;51.438;-2.006;2023-04-23T11:09:45;99311.28;;;15.20;58.57
66668;BME280;57205;51.438;-2.006;2023-04-23T11:14:54;99308.09;;;14.97;60.48
66668;BME280;57205;51.438;-2.006;2023-04-23T11:25:04;99305.47;;;16.00;54.99
66668;BME280;57205;51.438;-2.006;2023-04-23T11:27:30;99315.31;;;15.63;50.34
66668;BME280;57205;51.438;-2.006;2023-04-23T11:29:59;99312.81;;;15.79;51.60
66668;BME280;57205;51.438;-2.006;2023-04-23T11:32:26;99295.59;;;16.04;51.17
66668;BME280;57205;51.438;-2.006;2023-04-23T11:34:52;99296.00;;;16.27;51.42
66668;BME280;57205;51.438;-2.006;2023-04-23T11:37:18;99303.94;;;16.11;49.41
66668;BME280;57205;51.438;-2.006;2023-04-23T11:39:45;99305.94;;;16.02;49.77
66668;BME280;57205;51.438;-2.006;2023-04-23T11:42:15;99318.38;;;15.95;49.39
66668;BME280;57205;51.438;-2.006;2023-04-23T11:44:43;99309.84;;;15.72;51.29
66668;BME280;57205;51.438;-2.006;2023-04-23T11:47:10;99306.84;;;16.06;51.90
66668;BME280;57205;51.438;-2.006;2023-04-23T11:49:37;99309.09;;;16.04;51.40
66668;BME280;57205;51.438;-2.006;2023-04-23T11:52:04;99307.06;;;16.01;52.00
66668;BME280;57205;51.438;-2.006;2023-04-23T11:54:29;99303.97;;;15.91;53.03
66668;BME280;57205;51.438;-2.006;2023-04-23T11:56:56;99313.31;;;15.93;52.83
66668;BME280;57205;51.438;-2.006;2023-04-23T11:59:23;99315.19;;;15.81;51.17
66668;BME280;57205;51.438;-2.006;2023-04-23T12:01:51;99314.31;;;15.47;50.99
66668;BME280;57205;51.438;-2.006;2023-04-23T12:04:27;99308.19;;;15.59;51.95
66668;BME280;57205;51.438;-2.006;2023-04-23T12:06:54;99304.66;;;15.67;47.37
66668;BME280;57205;51.438;-2.006;2023-04-23T12:09:22;99302.66;;;15.76;47.47
66668;BME280;57205;51.438;-2.006;2023-04-23T12:11:48;99300.75;;;15.97;46.26
66668;BME280;57205;51.438;-2.006;2023-04-23T12:14:16;99296.19;;;16.10;45.37
66668;BME280;57205;51.438;-2.006;2023-04-23T12:16:46;99307.38;;;16.00;46.28
66668;BME280;57205;51.438;-2.006;2023-04-23T12:19:21;99301.66;;;16.01;46.35
66668;BME280;57205;51.438;-2.006;2023-04-23T12:21:57;99304.75;;;15.91;43.86
66668;BME280;57205;51.438;-2.006;2023-04-23T12:24:25;99308.31;;;15.62;42.91
66668;BME280;57205;51.438;-2.006;2023-04-23T12:26:56;99302.41;;;15.69;43.24
66668;BME280;57205;51.438;-2.006;2023-04-23T12:29:23;99296.06;;;16.06;44.46
66668;BME280;57205;51.438;-2.006;2023-04-23T12:31:50;99302.84;;;16.24;45.09
66668;BME280;57205;51.438;-2.006;2023-04-23T12:34:17;99299.91;;;16.50;45.38
66668;BME280;57205;51.438;-2.006;2023-04-23T12:36:49;99295.09;;;16.68;45.79
66668;BME280;57205;51.438;-2.006;2023-04-23T12:39:25;99300.75;;;16.75;45.82
66668;BME280;57205;51.438;-2.006;2023-04-23T12:41:53;99306.59;;;16.65;47.13
66668;BME280;57205;51.438;-2.006;2023-04-23T12:44:19;99301.97;;;16.65;46.64
66668;BME280;57205;51.438;-2.006;2023-04-23T12:46:52;99304.44;;;16.58;49.16
66668;BME280;57205;51.438;-2.006;2023-04-23T12:49:18;99303.13;;;16.43;49.92
66668;BME280;57205;51.438;-2.006;2023-04-23T12:51:43;99312.69;;;16.41;49.45
66668;BME280;57205;51.438;-2.006;2023-04-23T12:54:10;99304.94;;;16.39;49.74
66668;BME280;57205;51.438;-2.006;2023-04-23T12:56:35;99307.72;;;16.31;49.53
66668;BME280;57205;51.438;-2.006;2023-04-23T12:59:02;99311.84;;;16.16;50.05
66668;BME280;57205;51.438;-2.006;2023-04-23T13:01:29;99314.97;;;16.18;49.80